createdAt,value
2019-06-10T17:43:25.176Z,65.96
2019-06-10T17:45:53.919Z,64.23
2019-06-10T17:48:24.269Z,61.36
2019-06-10T17:50:52.918Z,61.42
2019-06-10T19:35:58.603Z,56.16
2019-06-10T19:38:28.273Z,56.90
2019-06-10T19:40:58.292Z,57.16
2019-06-10T19:43:28.311Z,57.75
2019-06-10T19:45:58.246Z,57.14
2019-06-10T19:48:27.997Z,56.88
2019-06-10T19:50:57.412Z,56.91
2019-06-10T19:53:26.825Z,57.02
2019-06-10T19:55:56.254Z,57.12
2019-06-10T19:58:25.672Z,57.52
2019-06-10T20:00:55.050Z,58.41
2019-06-10T20:03:24.450Z,58.54
2019-06-10T20:05:53.931Z,58.50
2019-06-10T20:08:23.331Z,58.72
2019-06-10T20:10:53.265Z,58.76
2019-06-10T20:13:23.249Z,58.56
2019-06-10T20:15:52.724Z,58.57
2019-06-10T20:18:22.753Z,58.69
2019-06-10T20:20:54.018Z,58.29
2019-06-10T20:23:23.609Z,58.40
2019-06-10T20:25:53.007Z,58.13
2019-06-10T20:28:22.693Z,58.04
2019-06-10T20:30:53.036Z,58.11
2019-06-10T20:33:36.573Z,58.51
2019-06-10T20:36:08.039Z,58.41
2019-06-10T20:38:37.765Z,58.48
2019-06-10T20:41:07.447Z,58.72
2019-06-10T20:43:37.282Z,59.03
2019-06-10T20:46:08.061Z,58.79
2019-06-10T20:48:38.800Z,58.62
2019-06-10T20:51:08.422Z,58.45
2019-06-10T20:53:38.151Z,58.42
2019-06-10T20:56:07.735Z,58.54
2019-06-10T20:58:37.132Z,58.75
2019-06-10T21:01:06.574Z,58.90
2019-06-10T21:03:35.936Z,59.04
2019-06-10T21:06:05.710Z,59.29
2019-06-10T21:08:35.231Z,59.50
2019-06-10T21:11:04.679Z,59.99
2019-06-10T21:13:34.055Z,60.53
2019-06-10T21:16:03.958Z,60.85
2019-06-10T21:18:33.381Z,61.09
2019-06-10T21:21:02.689Z,61.59
2019-06-10T21:23:31.993Z,61.79
2019-06-10T21:26:02.848Z,61.93
2019-06-10T21:28:32.849Z,61.90
2019-06-10T21:31:03.019Z,62.00
2019-06-10T21:33:33.353Z,61.87
2019-06-10T21:36:03.879Z,61.73
2019-06-10T21:38:33.623Z,61.67
2019-06-10T21:41:03.399Z,61.78
2019-06-10T21:43:33.264Z,61.37
2019-06-10T21:46:03.637Z,61.19
2019-06-10T21:48:33.376Z,61.18
2019-06-10T21:51:02.923Z,61.51
2019-06-10T21:53:32.171Z,61.50
2019-06-10T21:56:01.578Z,61.30
2019-06-10T21:58:32.784Z,61.24
2019-06-10T22:01:12.624Z,61.45
2019-06-10T22:03:33.591Z,61.37
2019-06-10T22:06:02.982Z,61.42
2019-06-10T22:08:33.478Z,61.36
2019-06-10T22:11:03.137Z,61.42
2019-06-10T22:13:32.910Z,61.38
2019-06-10T22:16:03.234Z,61.43
2019-06-10T22:18:32.876Z,61.30
2019-06-10T22:21:02.905Z,61.25
2019-06-10T22:23:33.075Z,61.28
2019-06-10T22:26:02.911Z,61.44
2019-06-10T22:28:32.916Z,61.49
2019-06-10T22:31:16.067Z,61.92
2019-06-10T22:33:33.369Z,61.98
2019-06-10T22:36:02.790Z,62.24
2019-06-10T22:38:32.851Z,62.34
2019-06-10T22:41:03.302Z,62.62
2019-06-10T22:43:32.926Z,62.73
2019-06-10T22:46:03.925Z,62.70
2019-06-10T22:48:33.470Z,62.69
2019-06-10T22:51:02.884Z,62.80
2019-06-10T22:53:33.403Z,63.10
2019-06-10T22:56:03.135Z,63.19
2019-06-10T22:58:32.546Z,63.34
2019-06-10T23:01:04.206Z,63.57
2019-06-10T23:03:33.213Z,63.39
2019-06-10T23:06:02.780Z,63.39
2019-06-10T23:08:33.395Z,63.46
2019-06-10T23:11:03.132Z,63.41
2019-06-10T23:13:32.649Z,63.38
2019-06-10T23:16:02.601Z,63.38
2019-06-10T23:18:33.070Z,63.35
2019-06-10T23:21:04.320Z,63.56
2019-06-10T23:23:33.603Z,63.38
2019-06-10T23:26:03.166Z,63.35
2019-06-10T23:28:32.847Z,63.07
2019-06-10T23:31:04.904Z,63.05
2019-06-10T23:33:33.399Z,63.28
2019-06-10T23:36:04.097Z,63.47
2019-06-10T23:38:33.724Z,63.77
2019-06-10T23:41:03.712Z,63.76
2019-06-10T23:43:33.540Z,63.77
2019-06-10T23:46:04.339Z,63.81
2019-06-10T23:48:34.082Z,63.67
2019-06-10T23:51:05.094Z,63.55
2019-06-10T23:53:34.616Z,63.46
2019-06-10T23:56:05.077Z,63.61
2019-06-10T23:58:34.606Z,63.66
